createdAt,value
2023-03-30T00:00:54.451Z,56.71
2023-03-30T00:01:54.448Z,56.65
2023-03-30T00:02:54.590Z,56.58
2023-03-30T00:03:54.645Z,56.47
2023-03-30T00:04:54.530Z,55.92
2023-03-30T00:05:54.430Z,56.10
2023-03-30T00:06:54.443Z,56.31
2023-03-30T00:07:54.443Z,56.60
2023-03-30T00:08:54.442Z,56.50
2023-03-30T00:09:54.423Z,56.47
2023-03-30T00:10:54.450Z,56.45
2023-03-30T00:11:54.435Z,56.39
2023-03-30T00:12:54.455Z,56.36
2023-03-30T00:13:54.483Z,56.24
2023-03-30T00:14:54.484Z,56.36
2023-03-30T00:15:54.493Z,56.32
2023-03-30T00:16:54.615Z,56.46
2023-03-30T00:17:54.573Z,56.48
2023-03-30T00:18:54.555Z,56.53
2023-03-30T00:19:54.555Z,56.77
2023-03-30T00:20:54.586Z,56.86
2023-03-30T00:21:54.581Z,56.84
2023-03-30T00:22:54.543Z,56.83
2023-03-30T00:23:54.582Z,56.99
2023-03-30T00:24:54.564Z,57.19
2023-03-30T00:25:54.560Z,56.98
2023-03-30T00:26:54.571Z,56.43
2023-03-30T00:27:54.568Z,56.03
2023-03-30T00:28:54.580Z,56.02
2023-03-30T00:29:54.598Z,56.17
2023-03-30T00:30:54.583Z,56.03
2023-03-30T00:31:54.693Z,56.03
2023-03-30T00:32:54.592Z,56.08
2023-03-30T00:33:54.582Z,56.13
2023-03-30T00:34:54.573Z,56.10
2023-03-30T00:35:54.611Z,55.98
2023-03-30T00:36:54.593Z,55.84
2023-03-30T00:37:54.622Z,55.84
2023-03-30T00:38:54.636Z,55.89
2023-03-30T00:39:54.625Z,56.07
2023-03-30T00:40:54.638Z,56.18
2023-03-30T00:41:54.657Z,56.18
2023-03-30T00:42:54.674Z,56.17
2023-03-30T00:43:54.683Z,56.30
2023-03-30T00:44:54.678Z,56.31
2023-03-30T00:45:54.735Z,56.36
2023-03-30T00:46:54.725Z,56.28
2023-03-30T00:47:54.737Z,56.00
2023-03-30T00:48:54.751Z,56.08
2023-03-30T00:49:54.774Z,56.24
2023-03-30T00:50:54.779Z,56.31
2023-03-30T00:51:54.812Z,56.29
2023-03-30T00:52:54.822Z,55.92
2023-03-30T00:53:54.841Z,56.05
2023-03-30T00:54:54.864Z,56.00
2023-03-30T00:55:54.897Z,56.37
2023-03-30T00:56:54.959Z,56.70
2023-03-30T00:57:54.927Z,56.89
2023-03-30T00:58:54.972Z,56.93
2023-03-30T00:59:55.000Z,56.85
2023-03-30T01:00:55.028Z,56.83
2023-03-30T01:01:55.097Z,56.79
2023-03-30T01:02:55.143Z,56.73
2023-03-30T01:03:55.201Z,56.67
2023-03-30T01:04:55.195Z,56.75
2023-03-30T01:05:55.237Z,56.56
2023-03-30T01:06:55.331Z,56.56
2023-03-30T01:07:55.321Z,56.48
2023-03-30T01:08:55.386Z,56.68
2023-03-30T01:09:55.468Z,56.52
2023-03-30T01:10:55.483Z,56.63
2023-03-30T01:11:55.506Z,56.62
2023-03-30T01:12:55.554Z,56.62
2023-03-30T01:13:55.597Z,56.63
2023-03-30T01:14:55.610Z,56.75
2023-03-30T01:15:55.693Z,56.78
2023-03-30T01:16:55.676Z,56.89
2023-03-30T01:17:55.725Z,56.94
2023-03-30T01:18:55.731Z,57.08
2023-03-30T01:19:55.741Z,57.26
2023-03-30T01:20:55.776Z,57.21
2023-03-30T01:21:55.771Z,57.16
2023-03-30T01:22:55.786Z,57.28
2023-03-30T01:23:55.816Z,57.17
2023-03-30T01:24:55.813Z,57.19
2023-03-30T01:25:55.844Z,57.24
2023-03-30T01:26:55.874Z,57.31
2023-03-30T01:27:55.871Z,57.31
2023-03-30T01:28:55.900Z,57.36
2023-03-30T01:29:55.931Z,57.45
2023-03-30T01:30:55.991Z,57.45
2023-03-30T01:31:55.942Z,57.40
2023-03-30T01:32:55.998Z,57.36
2023-03-30T01:33:55.986Z,57.75
2023-03-30T01:34:56.022Z,57.60
2023-03-30T01:35:56.062Z,57.30
2023-03-30T01:36:55.968Z,57.02
2023-03-30T01:37:55.967Z,56.70
2023-03-30T01:38:55.985Z,56.73
2023-03-30T01:39:55.968Z,56.64
2023-03-30T01:40:55.989Z,56.57
2023-03-30T01:41:55.974Z,56.61
2023-03-30T01:42:55.981Z,56.45
2023-03-30T01:43:55.991Z,56.38
2023-03-30T01:44:56.006Z,56.63
2023-03-30T01:45:56.030Z,56.65
2023-03-30T01:46:56.077Z,56.68
2023-03-30T01:47:56.077Z,56.69
2023-03-30T01:48:56.075Z,56.69
2023-03-30T01:49:56.072Z,56.76
2023-03-30T01:50:56.098Z,56.75
2023-03-30T01:51:56.165Z,56.95
2023-03-30T01:52:56.137Z,56.88
2023-03-30T01:53:56.146Z,57.01
2023-03-30T01:54:56.178Z,57.13
2023-03-30T01:55:56.199Z,57.19
2023-03-30T01:56:56.343Z,57.24
2023-03-30T01:57:56.253Z,57.26
2023-03-30T01:58:56.290Z,57.45
2023-03-30T01:59:56.342Z,57.44
2023-03-30T02:00:56.347Z,57.44
2023-03-30T02:01:56.412Z,57.54
2023-03-30T02:02:56.451Z,57.47
2023-03-30T02:03:56.539Z,57.47
2023-03-30T02:04:56.428Z,57.47
2023-03-30T02:05:56.442Z,57.47
2023-03-30T02:06:56.445Z,57.44
2023-03-30T02:07:56.444Z,57.53
2023-03-30T02:08:56.462Z,57.57
2023-03-30T02:09:56.497Z,57.53
2023-03-30T02:10:56.479Z,57.61
2023-03-30T02:11:56.507Z,57.70
2023-03-30T02:12:56.539Z,57.67
2023-03-30T02:13:56.562Z,57.90
2023-03-30T02:14:56.590Z,57.90
2023-03-30T02:15:56.675Z,57.99
2023-03-30T02:16:56.644Z,57.94
2023-03-30T02:17:56.698Z,57.97
2023-03-30T02:18:56.721Z,58.17
2023-03-30T02:19:56.737Z,58.06
2023-03-30T02:20:56.763Z,58.07
2023-03-30T02:21:56.784Z,58.14
2023-03-30T02:22:56.776Z,58.26
2023-03-30T02:23:56.824Z,58.27
2023-03-30T02:24:56.788Z,58.31
2023-03-30T02:25:56.788Z,58.29
2023-03-30T02:26:56.823Z,58.19
2023-03-30T02:27:56.820Z,58.11
2023-03-30T02:28:56.808Z,58.04
2023-03-30T02:29:56.837Z,58.08
2023-03-30T02:30:56.831Z,58.05
2023-03-30T02:31:56.863Z,58.07
2023-03-30T02:32:56.924Z,58.12
2023-03-30T02:33:56.845Z,58.08
2023-03-30T02:34:56.852Z,57.97
2023-03-30T02:35:56.875Z,57.53
2023-03-30T02:36:56.896Z,57.38
2023-03-30T02:37:56.845Z,57.29
2023-03-30T02:38:56.852Z,57.24
2023-03-30T02:39:56.870Z,57.21
2023-03-30T02:40:56.920Z,57.24
2023-03-30T02:41:56.885Z,57.54
2023-03-30T02:42:56.913Z,57.82
2023-03-30T02:43:56.953Z,57.85
2023-03-30T02:44:57.009Z,58.21
2023-03-30T02:45:57.094Z,57.95
2023-03-30T02:46:57.138Z,57.76
2023-03-30T02:47:57.139Z,57.56
2023-03-30T02:48:57.214Z,57.40
2023-03-30T02:49:57.205Z,58.05
2023-03-30T02:50:57.241Z,57.62
2023-03-30T02:51:57.289Z,57.33
2023-03-30T02:52:57.335Z,57.34
2023-03-30T02:53:57.353Z,57.32
2023-03-30T02:54:57.402Z,57.22
2023-03-30T02:55:57.435Z,57.10
2023-03-30T02:56:57.508Z,57.17
2023-03-30T02:57:57.524Z,57.45
2023-03-30T02:58:57.587Z,57.52
2023-03-30T02:59:57.655Z,57.50
2023-03-30T03:01:00.596Z,57.36
2023-03-30T03:01:57.708Z,57.29
2023-03-30T03:02:57.784Z,57.17
2023-03-30T03:03:57.704Z,57.03
2023-03-30T03:04:57.651Z,57.08
2023-03-30T03:05:57.636Z,57.12
2023-03-30T03:06:57.634Z,57.06
2023-03-30T03:07:57.665Z,57.14
2023-03-30T03:08:57.629Z,57.16
2023-03-30T03:09:57.637Z,57.28
2023-03-30T03:10:57.608Z,57.21
2023-03-30T03:11:57.613Z,57.25
2023-03-30T03:12:57.591Z,57.21
2023-03-30T03:13:57.588Z,57.19
2023-03-30T03:14:57.580Z,57.24
2023-03-30T03:15:57.601Z,57.30
2023-03-30T03:16:57.618Z,57.33
2023-03-30T03:17:57.626Z,57.46
2023-03-30T03:18:57.577Z,57.50
2023-03-30T03:19:57.545Z,57.60
2023-03-30T03:20:57.546Z,57.61
2023-03-30T03:21:57.541Z,57.52
2023-03-30T03:22:57.538Z,57.59
2023-03-30T03:23:57.544Z,57.56
2023-03-30T03:24:57.529Z,57.51
2023-03-30T03:25:57.513Z,57.51
2023-03-30T03:26:57.499Z,57.44
2023-03-30T03:27:57.496Z,57.47
2023-03-30T03:28:57.485Z,57.56
2023-03-30T03:29:57.483Z,57.57
2023-03-30T03:30:57.562Z,57.65
2023-03-30T03:31:57.490Z,57.64
2023-03-30T03:32:57.547Z,57.63
2023-03-30T03:33:57.476Z,57.70
2023-03-30T03:34:57.467Z,57.58
2023-03-30T03:35:57.458Z,57.36
2023-03-30T03:36:57.461Z,57.38
2023-03-30T03:37:57.448Z,57.35
2023-03-30T03:38:57.437Z,57.35
2023-03-30T03:39:57.413Z,57.29
2023-03-30T03:40:57.424Z,57.48
2023-03-30T03:41:57.396Z,57.53
2023-03-30T03:42:57.397Z,57.80
2023-03-30T03:43:57.382Z,57.78
2023-03-30T03:44:57.384Z,57.66
2023-03-30T03:45:57.409Z,57.55
2023-03-30T03:46:57.477Z,57.50
2023-03-30T03:47:57.503Z,57.42
2023-03-30T03:48:57.375Z,57.44
2023-03-30T03:49:57.352Z,57.54
2023-03-30T03:50:57.364Z,57.59
2023-03-30T03:51:57.340Z,57.55
2023-03-30T03:52:57.342Z,57.54
2023-03-30T03:53:57.335Z,57.70
2023-03-30T03:54:57.329Z,57.75
2023-03-30T03:55:57.322Z,57.86
2023-03-30T03:56:57.373Z,57.82
2023-03-30T03:57:57.316Z,57.88
2023-03-30T03:58:57.313Z,57.91
2023-03-30T03:59:57.311Z,57.91
2023-03-30T04:00:57.364Z,57.86
2023-03-30T04:01:57.323Z,57.80
2023-03-30T04:02:57.305Z,57.70
2023-03-30T04:03:57.271Z,57.59
2023-03-30T04:04:57.285Z,57.48
2023-03-30T04:05:57.279Z,57.37
2023-03-30T04:06:57.260Z,57.24
2023-03-30T04:07:57.248Z,57.14
2023-03-30T04:08:57.242Z,57.10
2023-03-30T04:09:57.218Z,57.02
2023-03-30T04:10:57.779Z,56.99
2023-03-30T04:11:57.204Z,57.07
2023-03-30T04:12:57.193Z,56.78
2023-03-30T04:13:57.196Z,57.10
2023-03-30T04:14:57.199Z,57.09
2023-03-30T04:15:57.237Z,57.21
2023-03-30T04:16:57.206Z,57.13
2023-03-30T04:17:57.211Z,57.08
2023-03-30T04:18:57.158Z,57.13
2023-03-30T04:19:57.136Z,57.17
2023-03-30T04:20:57.144Z,57.17
2023-03-30T04:21:57.125Z,57.17
2023-03-30T04:22:57.168Z,57.05
2023-03-30T04:23:57.102Z,56.88
2023-03-30T04:24:57.109Z,56.86
2023-03-30T04:25:57.084Z,57.02
2023-03-30T04:26:57.135Z,57.19
2023-03-30T04:27:57.229Z,57.28
2023-03-30T04:28:57.085Z,57.35
2023-03-30T04:29:57.074Z,57.29
2023-03-30T04:30:57.060Z,57.35
2023-03-30T04:31:57.142Z,57.35
2023-03-30T04:32:57.092Z,57.23
2023-03-30T04:33:57.092Z,57.15
2023-03-30T04:34:57.117Z,57.04
2023-03-30T04:35:57.214Z,56.93
2023-03-30T04:36:57.204Z,56.83
2023-03-30T04:37:57.177Z,57.03
2023-03-30T04:38:57.192Z,57.29
2023-03-30T04:39:57.225Z,57.24
2023-03-30T04:40:57.242Z,57.20
2023-03-30T04:41:57.293Z,57.24
2023-03-30T04:42:57.310Z,57.25
2023-03-30T04:43:57.352Z,57.38
2023-03-30T04:44:57.392Z,57.38
2023-03-30T04:45:57.527Z,57.39
2023-03-30T04:46:57.478Z,57.40
2023-03-30T04:47:57.701Z,57.33
2023-03-30T04:48:57.574Z,57.23
2023-03-30T04:49:57.613Z,57.26
2023-03-30T04:50:57.670Z,57.38
2023-03-30T04:51:57.711Z,57.30
2023-03-30T04:52:57.766Z,57.47
2023-03-30T04:53:57.824Z,57.52
2023-03-30T04:54:57.869Z,57.71
2023-03-30T04:55:57.865Z,57.51
2023-03-30T04:56:57.902Z,57.41
2023-03-30T04:57:57.907Z,57.40
2023-03-30T04:58:57.935Z,57.35
2023-03-30T04:59:57.972Z,57.39
2023-03-30T05:00:58.004Z,57.37
2023-03-30T05:01:58.074Z,57.62
2023-03-30T05:02:58.089Z,57.56
2023-03-30T05:03:58.060Z,57.51
2023-03-30T05:04:58.121Z,57.61
2023-03-30T05:05:58.155Z,57.41
2023-03-30T05:06:58.220Z,57.25
2023-03-30T05:07:58.286Z,56.98
2023-03-30T05:08:58.339Z,56.92
2023-03-30T05:09:58.395Z,56.80
2023-03-30T05:10:58.432Z,56.72
2023-03-30T05:11:58.502Z,56.66
2023-03-30T05:12:58.555Z,56.69
2023-03-30T05:13:58.609Z,57.87
2023-03-30T05:14:58.652Z,57.78
2023-03-30T05:15:58.706Z,57.70
2023-03-30T05:16:58.829Z,57.36
2023-03-30T05:17:58.850Z,57.39
2023-03-30T05:18:58.838Z,57.60
2023-03-30T05:19:58.876Z,57.30
2023-03-30T05:20:58.916Z,57.03
2023-03-30T05:21:58.969Z,57.07
2023-03-30T05:22:58.999Z,57.47
2023-03-30T05:23:59.072Z,57.28
2023-03-30T05:24:59.089Z,57.35
2023-03-30T05:25:59.138Z,57.42
2023-03-30T05:26:59.134Z,56.76
2023-03-30T05:27:59.172Z,56.58
2023-03-30T05:28:59.206Z,56.65
2023-03-30T05:29:59.240Z,56.74
2023-03-30T05:30:59.311Z,56.74
2023-03-30T05:31:59.359Z,56.76
2023-03-30T05:32:59.457Z,56.69
2023-03-30T05:33:59.463Z,56.56
2023-03-30T05:34:59.513Z,56.48
2023-03-30T05:35:59.581Z,56.56
2023-03-30T05:36:59.569Z,56.67
2023-03-30T05:37:59.591Z,56.78
2023-03-30T05:38:59.818Z,57.07
2023-03-30T05:39:59.624Z,57.36
2023-03-30T05:40:59.679Z,57.47
2023-03-30T05:41:59.821Z,57.67
2023-03-30T05:42:59.732Z,57.75
2023-03-30T05:43:59.758Z,57.77
2023-03-30T05:45:00.302Z,57.73
2023-03-30T05:45:59.850Z,57.80
2023-03-30T05:46:59.877Z,57.86
2023-03-30T05:47:59.946Z,57.82
2023-03-30T05:48:59.972Z,58.00
2023-03-30T05:49:59.994Z,57.92
2023-03-30T05:51:02.322Z,57.91
2023-03-30T05:51:59.974Z,57.99
2023-03-30T05:52:59.966Z,58.31
2023-03-30T05:53:59.944Z,58.23
2023-03-30T05:54:59.954Z,58.35
2023-03-30T05:55:59.915Z,58.27
2023-03-30T05:56:59.993Z,58.42
2023-03-30T05:57:59.911Z,58.37
2023-03-30T05:58:59.925Z,58.43
2023-03-30T05:59:59.910Z,58.42
2023-03-30T06:00:59.912Z,58.52
2023-03-30T06:01:59.886Z,58.59
2023-03-30T06:02:59.948Z,58.50
2023-03-30T06:03:59.972Z,58.52
2023-03-30T06:04:59.917Z,58.49
2023-03-30T06:05:59.863Z,58.60
2023-03-30T06:06:59.889Z,58.61
2023-03-30T06:07:59.856Z,58.70
2023-03-30T06:08:59.906Z,59.41
2023-03-30T06:09:59.891Z,59.16
2023-03-30T06:10:59.829Z,58.88
2023-03-30T06:11:59.829Z,58.73
2023-03-30T06:12:59.829Z,58.78
2023-03-30T06:13:59.802Z,58.72
2023-03-30T06:14:59.843Z,58.83
2023-03-30T06:16:02.959Z,58.69
2023-03-30T06:16:59.793Z,58.64
2023-03-30T06:17:59.855Z,58.50
2023-03-30T06:18:59.815Z,58.40
2023-03-30T06:19:59.847Z,58.47
2023-03-30T06:20:59.757Z,58.57
2023-03-30T06:21:59.750Z,58.53
2023-03-30T06:22:59.759Z,58.66
2023-03-30T06:23:59.756Z,58.59
2023-03-30T06:24:59.757Z,58.61
2023-03-30T06:25:59.721Z,58.59
2023-03-30T06:26:59.718Z,58.66
2023-03-30T06:27:59.729Z,58.74
2023-03-30T06:28:59.717Z,58.82
2023-03-30T06:29:59.711Z,58.86
2023-03-30T06:30:59.706Z,58.77
2023-03-30T06:31:59.713Z,58.74
2023-03-30T06:32:59.849Z,58.68
2023-03-30T06:33:59.693Z,58.75
2023-03-30T06:34:59.672Z,58.81
2023-03-30T06:35:59.853Z,58.90
2023-03-30T06:36:59.659Z,58.84
2023-03-30T06:37:59.658Z,58.75
2023-03-30T06:38:59.647Z,58.77
2023-03-30T06:39:59.624Z,58.73
2023-03-30T06:40:59.801Z,58.87
2023-03-30T06:41:59.663Z,58.80
2023-03-30T06:42:59.619Z,59.01
2023-03-30T06:43:59.604Z,59.00
2023-03-30T06:44:59.607Z,59.10
2023-03-30T06:45:59.624Z,59.07
2023-03-30T06:46:59.574Z,58.95
2023-03-30T06:47:59.844Z,59.03
2023-03-30T06:48:59.585Z,58.97
2023-03-30T06:49:59.584Z,58.98
2023-03-30T06:50:59.804Z,58.99
2023-03-30T06:52:02.133Z,59.03
2023-03-30T06:52:59.892Z,58.97
2023-03-30T06:53:59.551Z,58.84
2023-03-30T06:54:59.537Z,58.65
2023-03-30T06:55:59.651Z,58.36
2023-03-30T06:56:59.554Z,58.40
2023-03-30T06:57:59.543Z,58.49
2023-03-30T06:58:59.498Z,58.65
2023-03-30T06:59:59.495Z,57.97
2023-03-30T07:00:59.576Z,58.04
2023-03-30T07:01:59.487Z,58.31
2023-03-30T07:02:59.516Z,58.42
2023-03-30T07:03:59.486Z,58.53
2023-03-30T07:04:59.467Z,58.56
2023-03-30T07:05:59.469Z,58.59
2023-03-30T07:06:59.481Z,58.47
2023-03-30T07:07:59.459Z,58.53
2023-03-30T07:08:59.456Z,58.51
2023-03-30T07:09:59.433Z,58.50
2023-03-30T07:10:59.422Z,58.51
2023-03-30T07:11:59.835Z,58.54
2023-03-30T07:12:59.830Z,58.60
2023-03-30T07:13:59.851Z,58.47
2023-03-30T07:14:59.402Z,58.45
2023-03-30T07:15:59.391Z,58.38
2023-03-30T07:16:59.420Z,58.29
2023-03-30T07:17:59.414Z,58.41
2023-03-30T07:18:59.403Z,58.46
2023-03-30T07:19:59.618Z,58.35
2023-03-30T07:20:59.425Z,58.40
2023-03-30T07:21:59.443Z,58.54
2023-03-30T07:22:59.513Z,58.78
2023-03-30T07:23:59.557Z,59.03
2023-03-30T07:24:59.629Z,59.16
2023-03-30T07:25:59.686Z,59.26
2023-03-30T07:26:59.819Z,59.29
2023-03-30T07:27:59.814Z,59.21
2023-03-30T07:28:59.889Z,59.06
2023-03-30T07:30:10.364Z,58.85
2023-03-30T07:31:01.071Z,58.65
2023-03-30T07:31:59.938Z,58.43
2023-03-30T07:32:59.975Z,58.28
2023-03-30T07:34:00.329Z,58.50
2023-03-30T07:34:59.904Z,58.50
2023-03-30T07:35:59.893Z,58.66
2023-03-30T07:36:59.884Z,58.73
2023-03-30T07:38:03.417Z,58.64
2023-03-30T07:39:00.314Z,58.66
2023-03-30T07:39:59.927Z,58.69
2023-03-30T07:40:59.868Z,58.71
2023-03-30T07:41:59.858Z,58.73
2023-03-30T07:42:59.868Z,58.74
2023-03-30T07:43:59.834Z,58.73
2023-03-30T07:44:59.834Z,58.83
2023-03-30T07:45:59.855Z,58.66
2023-03-30T07:46:59.809Z,58.54
2023-03-30T07:47:59.931Z,58.47
2023-03-30T07:48:59.816Z,58.45
2023-03-30T07:49:59.819Z,58.53
2023-03-30T07:50:59.804Z,58.37
2023-03-30T07:51:59.793Z,58.29
2023-03-30T07:52:59.791Z,58.30
2023-03-30T07:53:59.778Z,58.19
2023-03-30T07:54:59.758Z,58.35
2023-03-30T07:55:59.745Z,58.11
2023-03-30T07:56:59.804Z,58.07
2023-03-30T07:57:59.762Z,57.62
2023-03-30T07:59:01.816Z,57.66
2023-03-30T07:59:59.725Z,58.20
2023-03-30T08:00:59.748Z,58.16
2023-03-30T08:01:59.722Z,58.38
2023-03-30T08:02:59.909Z,57.91
2023-03-30T08:03:59.720Z,57.53
2023-03-30T08:04:59.821Z,57.72
2023-03-30T08:05:59.727Z,58.15
2023-03-30T08:06:59.731Z,58.07
2023-03-30T08:07:59.759Z,57.72
2023-03-30T08:08:59.771Z,57.73
2023-03-30T08:09:59.786Z,57.61
2023-03-30T08:10:59.806Z,57.59
2023-03-30T08:11:59.807Z,57.47
2023-03-30T08:12:59.808Z,57.72
2023-03-30T08:13:59.884Z,57.97
2023-03-30T08:14:59.833Z,58.13
2023-03-30T08:15:59.877Z,58.02
2023-03-30T08:16:59.826Z,58.02
2023-03-30T08:17:59.870Z,58.09
2023-03-30T08:18:59.836Z,58.36
2023-03-30T08:19:59.827Z,58.51
2023-03-30T08:21:00.333Z,58.56
2023-03-30T08:21:59.903Z,58.28
2023-03-30T08:22:59.951Z,58.39
2023-03-30T08:23:59.982Z,58.51
2023-03-30T08:25:00.026Z,58.62
2023-03-30T08:26:00.835Z,58.56
2023-03-30T08:27:00.160Z,57.92
2023-03-30T08:28:00.175Z,57.92
2023-03-30T08:29:00.209Z,57.77
2023-03-30T08:30:00.274Z,57.63
2023-03-30T08:31:00.385Z,57.47
2023-03-30T08:32:00.402Z,57.37
2023-03-30T08:33:00.522Z,57.17
2023-03-30T08:34:00.487Z,57.21
2023-03-30T08:35:00.523Z,57.17
2023-03-30T08:36:00.874Z,57.86
2023-03-30T08:37:00.642Z,58.20
2023-03-30T08:38:00.708Z,57.97
2023-03-30T08:39:00.770Z,58.18
2023-03-30T08:40:00.842Z,57.64
2023-03-30T08:41:00.831Z,57.23
2023-03-30T08:42:00.900Z,56.87
2023-03-30T08:43:00.932Z,57.26
2023-03-30T08:44:01.040Z,57.63
2023-03-30T08:45:01.013Z,57.42
2023-03-30T08:46:01.091Z,57.65
2023-03-30T08:47:01.116Z,57.91
2023-03-30T08:48:01.246Z,56.97
2023-03-30T08:49:01.224Z,57.26
2023-03-30T08:50:01.339Z,57.23
2023-03-30T08:51:01.377Z,57.45
2023-03-30T08:52:03.055Z,57.11
2023-03-30T08:53:01.464Z,57.33
2023-03-30T08:54:01.550Z,57.55
2023-03-30T08:55:01.580Z,57.47
2023-03-30T08:56:01.603Z,57.40
2023-03-30T08:57:01.682Z,57.85
2023-03-30T08:58:01.734Z,57.72
2023-03-30T08:59:01.773Z,57.66
2023-03-30T09:00:01.873Z,57.87
2023-03-30T09:01:02.487Z,57.74
2023-03-30T09:02:01.918Z,57.95
2023-03-30T09:03:01.983Z,57.86
2023-03-30T09:04:02.048Z,57.64
2023-03-30T09:05:02.326Z,57.66
2023-03-30T09:06:02.351Z,57.25
2023-03-30T09:07:02.097Z,57.60
2023-03-30T09:08:02.090Z,57.68
2023-03-30T09:09:02.172Z,56.45
2023-03-30T09:10:03.145Z,56.39
2023-03-30T09:11:02.556Z,56.44
2023-03-30T09:12:02.105Z,56.47
2023-03-30T09:13:02.127Z,56.32
2023-03-30T09:14:02.163Z,56.38
2023-03-30T09:15:02.146Z,56.04
2023-03-30T09:16:02.431Z,56.09
2023-03-30T09:17:02.210Z,56.54
2023-03-30T09:18:02.191Z,56.52
2023-03-30T09:19:02.179Z,57.03
2023-03-30T09:20:02.193Z,56.86
2023-03-30T09:21:02.786Z,56.48
2023-03-30T09:22:02.195Z,57.21
2023-03-30T09:23:02.182Z,56.61
2023-03-30T09:24:02.210Z,56.44
2023-03-30T09:25:02.204Z,56.68
2023-03-30T09:26:02.368Z,56.59
2023-03-30T09:27:02.207Z,56.83
2023-03-30T09:28:02.250Z,56.92
2023-03-30T09:29:02.255Z,56.84
2023-03-30T09:30:02.313Z,56.80
2023-03-30T09:31:02.544Z,56.49
2023-03-30T09:32:02.458Z,56.64
2023-03-30T09:33:02.514Z,56.43
2023-03-30T09:34:02.543Z,56.53
2023-03-30T09:35:02.647Z,56.11
2023-03-30T09:36:10.933Z,55.99
2023-03-30T09:37:02.657Z,55.89
2023-03-30T09:38:02.718Z,55.50
2023-03-30T09:39:02.655Z,55.45
2023-03-30T09:40:02.716Z,55.27
2023-03-30T09:41:02.902Z,55.51
2023-03-30T09:42:02.911Z,55.80
2023-03-30T09:43:02.902Z,55.78
2023-03-30T09:44:02.937Z,55.74
2023-03-30T09:45:02.957Z,55.86
2023-03-30T09:46:04.166Z,55.62
2023-03-30T09:47:03.047Z,55.57
2023-03-30T09:48:03.173Z,55.05
2023-03-30T09:49:03.125Z,54.57
2023-03-30T09:50:03.137Z,54.67
2023-03-30T09:51:03.186Z,54.89
2023-03-30T09:52:03.271Z,54.56
2023-03-30T09:53:03.238Z,54.50
2023-03-30T09:54:03.246Z,54.62
2023-03-30T09:55:03.869Z,54.04
2023-03-30T09:56:03.517Z,54.37
2023-03-30T09:57:03.970Z,54.71
2023-03-30T09:58:03.886Z,54.33
2023-03-30T09:59:03.854Z,54.82
2023-03-30T10:00:03.386Z,54.61
2023-03-30T10:01:03.336Z,54.80
2023-03-30T10:02:03.346Z,54.46
2023-03-30T10:03:04.100Z,54.54
2023-03-30T10:04:03.644Z,54.75
2023-03-30T10:05:03.600Z,54.89
2023-03-30T10:06:03.790Z,54.51
2023-03-30T10:07:18.069Z,54.74
2023-03-30T10:08:04.409Z,54.87
2023-03-30T10:09:03.507Z,54.71
2023-03-30T10:10:03.573Z,55.04
2023-03-30T10:11:03.499Z,54.20
2023-03-30T10:12:03.508Z,54.11
2023-03-30T10:13:03.457Z,54.45
2023-03-30T10:14:03.486Z,54.80
2023-03-30T10:15:04.405Z,54.36
2023-03-30T10:16:03.819Z,53.86
2023-03-30T10:17:03.500Z,53.83
2023-03-30T10:18:03.496Z,54.33
2023-03-30T10:19:03.447Z,53.79
2023-03-30T10:20:13.665Z,53.49
2023-03-30T10:21:03.482Z,53.06
2023-03-30T10:22:03.641Z,52.70
2023-03-30T10:23:03.478Z,52.87
2023-03-30T10:24:03.508Z,53.10
2023-03-30T10:25:03.409Z,53.75
2023-03-30T10:26:03.828Z,53.75
2023-03-30T10:27:03.367Z,53.05
2023-03-30T10:28:03.404Z,53.08
2023-03-30T10:29:03.361Z,52.80
2023-03-30T10:30:03.431Z,52.44
2023-03-30T10:31:03.397Z,52.02
2023-03-30T10:32:04.092Z,51.88
2023-03-30T10:33:03.371Z,51.59
2023-03-30T10:34:03.410Z,52.06
2023-03-30T10:35:03.299Z,52.20
2023-03-30T10:36:03.581Z,51.66
2023-03-30T10:37:03.321Z,49.86
2023-03-30T10:38:03.301Z,49.61
2023-03-30T10:39:04.879Z,49.86
2023-03-30T10:40:03.308Z,49.01
2023-03-30T10:41:03.890Z,50.51
2023-03-30T10:42:03.882Z,50.43
2023-03-30T10:43:03.271Z,50.39
2023-03-30T10:44:03.870Z,50.57
2023-03-30T10:45:03.228Z,50.74
2023-03-30T10:46:18.362Z,50.70
2023-03-30T10:47:04.292Z,50.81
2023-03-30T10:48:03.312Z,51.02
2023-03-30T10:49:03.268Z,49.35
2023-03-30T10:50:03.223Z,49.35
2023-03-30T10:51:03.874Z,50.01
2023-03-30T10:52:03.220Z,49.69
2023-03-30T10:53:05.874Z,49.18
2023-03-30T10:54:03.221Z,49.06
2023-03-30T10:55:03.224Z,49.41
2023-03-30T10:56:03.400Z,49.33
2023-03-30T10:57:03.424Z,49.03
2023-03-30T10:58:03.203Z,48.82
2023-03-30T10:59:03.892Z,48.99
2023-03-30T11:00:03.894Z,49.70
2023-03-30T11:01:03.193Z,50.13
2023-03-30T11:02:03.133Z,49.45
2023-03-30T11:03:03.216Z,49.33
2023-03-30T11:04:16.182Z,49.45
2023-03-30T11:05:04.110Z,49.31
2023-03-30T11:06:03.272Z,48.89
2023-03-30T11:07:03.409Z,48.85
2023-03-30T11:08:04.116Z,48.32
2023-03-30T11:09:03.093Z,48.38
2023-03-30T11:10:03.073Z,48.69
2023-03-30T11:11:03.128Z,48.68
2023-03-30T11:12:03.099Z,48.30
2023-03-30T11:13:03.220Z,48.42
2023-03-30T11:14:03.058Z,48.24
2023-03-30T11:15:03.933Z,48.54
2023-03-30T11:16:03.392Z,48.13
2023-03-30T11:17:03.514Z,47.81
2023-03-30T11:18:03.028Z,47.36
2023-03-30T11:19:03.089Z,47.01
2023-03-30T11:20:04.027Z,47.56
2023-03-30T11:21:03.066Z,47.29
2023-03-30T11:22:04.379Z,47.46
2023-03-30T11:23:02.986Z,46.61
2023-03-30T11:24:02.953Z,48.21
2023-03-30T11:25:02.952Z,47.72
2023-03-30T11:26:03.330Z,47.66
2023-03-30T11:27:05.951Z,48.25
2023-03-30T11:28:02.938Z,46.94
2023-03-30T11:29:02.989Z,47.63
2023-03-30T11:30:02.937Z,48.28
2023-03-30T11:31:02.966Z,47.81
2023-03-30T11:32:03.029Z,47.95
2023-03-30T11:33:03.074Z,48.23
2023-03-30T11:34:02.972Z,48.45
2023-03-30T11:35:02.890Z,48.66
2023-03-30T11:36:03.160Z,48.50
2023-03-30T11:37:02.880Z,48.11
2023-03-30T11:38:02.895Z,48.16
2023-03-30T11:39:02.877Z,48.24
2023-03-30T11:40:02.865Z,48.06
2023-03-30T11:41:02.850Z,47.95
2023-03-30T11:42:02.843Z,47.91
2023-03-30T11:43:02.846Z,46.87
2023-03-30T11:44:02.845Z,46.98
2023-03-30T11:45:02.843Z,46.95
2023-03-30T11:46:03.874Z,46.87
2023-03-30T11:47:02.836Z,47.03
2023-03-30T11:48:02.890Z,46.36
2023-03-30T11:49:02.822Z,46.58
2023-03-30T11:50:02.797Z,46.64
2023-03-30T11:51:03.167Z,47.08
2023-03-30T11:52:02.774Z,47.51
2023-03-30T11:53:02.780Z,47.99
2023-03-30T11:54:02.777Z,47.90
2023-03-30T11:55:04.329Z,47.24
2023-03-30T11:56:02.965Z,46.67
2023-03-30T11:57:03.450Z,47.21
2023-03-30T11:58:05.585Z,47.00
2023-03-30T11:59:02.937Z,45.46
2023-03-30T12:00:02.971Z,45.72
2023-03-30T12:01:03.307Z,45.73
2023-03-30T12:02:02.848Z,45.66
2023-03-30T12:03:03.000Z,46.07
2023-03-30T12:04:02.926Z,46.22
2023-03-30T12:05:02.908Z,46.28
2023-03-30T12:06:03.585Z,46.50
2023-03-30T12:07:02.870Z,46.47
2023-03-30T12:08:02.859Z,46.63
2023-03-30T12:09:02.796Z,46.72
2023-03-30T12:10:05.386Z,47.36
2023-03-30T12:11:03.101Z,47.13
2023-03-30T12:12:02.916Z,46.73
2023-03-30T12:13:02.776Z,46.25
2023-03-30T12:14:02.786Z,46.15
2023-03-30T12:15:02.772Z,46.41
2023-03-30T12:16:02.923Z,46.22
2023-03-30T12:17:02.737Z,45.89
2023-03-30T12:18:02.819Z,45.57
2023-03-30T12:19:02.743Z,45.49
2023-03-30T12:20:02.720Z,45.18
2023-03-30T12:21:02.737Z,44.72
2023-03-30T12:22:02.785Z,44.81
2023-03-30T12:23:02.856Z,44.80
2023-03-30T12:24:02.889Z,44.85
2023-03-30T12:25:02.963Z,45.10
2023-03-30T12:26:03.243Z,45.26
2023-03-30T12:27:06.178Z,45.29
2023-03-30T12:28:03.008Z,44.95
2023-03-30T12:29:29.019Z,45.23
2023-03-30T12:30:04.075Z,45.57
2023-03-30T12:31:02.969Z,45.38
2023-03-30T12:32:03.140Z,45.97
2023-03-30T12:33:03.000Z,44.91
2023-03-30T12:34:03.000Z,44.95
2023-03-30T12:35:02.977Z,45.46
2023-03-30T12:36:03.176Z,45.95
2023-03-30T12:37:02.958Z,45.85
2023-03-30T12:38:02.943Z,46.05
2023-03-30T12:39:02.970Z,46.87
2023-03-30T12:40:03.901Z,47.18
2023-03-30T12:41:02.932Z,47.49
2023-03-30T12:42:02.908Z,47.57
2023-03-30T12:43:02.894Z,48.29
2023-03-30T12:44:02.876Z,48.11
2023-03-30T12:45:02.884Z,48.38
2023-03-30T12:46:03.303Z,48.29
2023-03-30T12:47:06.174Z,48.20
2023-03-30T12:48:02.925Z,48.53
2023-03-30T12:49:06.002Z,48.62
2023-03-30T12:50:03.408Z,48.76
2023-03-30T12:51:02.868Z,48.83
2023-03-30T12:52:03.430Z,48.68
2023-03-30T12:53:04.086Z,48.87